Portada
METAR-TAF:

METAR-TAF

Aeroports :

Dire Dawa, Etiòpia

latitud: 09-36N, longitud: 041-52E, altitud: 1146 m

METAR: manca

Hora: 03:55 (00:55 UTC)

Pronòstic

L'informe es va fer fa 9 hores i 25 minuts, a les 15:30 UTC
Pronòstic vàlid del 03 a les 18 UTC al 04 a les 24 UTC
Vent 7 kt del Nord-Oest
Visibilitat 10 km o més
Escasses núvols a una alçada de 3000 ft
Escasses núvols a una alçada de 9000 ft

TAF: HADR 031530Z 0318/0424 32007KT 9999 FEW030 FEW090

Observacions i pronòstics meteorològics de més de 4000 aeroports (METAR i TAF).

Les estacions disponibles són els punts grocs i vermells al mapa.

Posi el ratolí al punt desitjat per veure el nom de l'estació.

Feu clic per veure les observacions i els pronòstics meteorològics.

Per canviar el mapa: feu clic els botons verds amb una creu de color negre per apropar; al botó verd amb un guió per allunyar la imatge; o en les fletxes verdes per a mapes adjacents.


METAR-TAF: